Aérodrome :
LOGIN :

S'inscrire | Disclaimer

   EN    FR    IT 

 










Légende :    VFR   VFR Marginal   IFR   IFR Intensif   IFR Très Intensif
Visi : 
Plafond : 
>= 8 km
>= 3000ft
5 à 8 km
1000 à 3000 ft
1500m à 5 km
500 à 1000 ft
800 à 1500m
200 à 500 ft
< 800m
< 200 ft
Symboles :   Orages  Brouillard  Fortes neiges  Fortes précipitations  Vent > 20 kt
SIGMETs :   Divers  Orages  Givrage  Turbulence  Onde Orograph.  Cendres Volcan.






- Altitude de l'aérodrome : 100 ft
- Code IATA : DCI


LIED - Decimomannu Air Base

DERNIER METAR :
  • 020655Z 15003KT 9999 BKN040 SCT060 09/07 Q1012 RMK OVC VIS MIN 9999 WIND THR35 16002KT WIND THR17 /////KT BLU

METARs EXPIRÉS :
  • 020555Z 08002KT 9999 FEW040 BKN060 08/07 Q1012 RMK OVC VIS MIN 9999 WIND THR35 08002KT WIND THR17 /////KT BLU
  • 020455Z 05003KT 9999 SCT040 SCT050 08/06 Q1013 RMK OVC VIS MIN 9999 WIND THR35 04002KT WIND THR17 /////KT BLU
  • 020355Z 01003KT 9999 FEW040 08/06 Q1013 RMK BKN SCT080 VIS MIN 9999 WIND THR35 01003KT WIND THR17 /////KT BLU

TAF TAF LIED
Valide du 02 à 06h jusqu'au 02 à 15h UTC


020500Z 0206/0215 VRB02KT 9999 FEW030 BKN050
TEMPO 0209/0213 RA BKN020



MET'MAP, la Météo Aéronautique d'un coup d'oeil ! - Copyright ORBIFLY Décembre 2007 - Disclaimer

ORBIFLY MET'MAP TEAM :

Programmation & Développement : Alexandra Zaïnal
Sur une idée originale de : Baudouin d'Aumeries
Assistance à la programmation : Marc-Olivier Méhu
Soutien technique & logistique : Manuel Goepfert

Contact : metmap@orbifly.com




SOURCES & CREDITS :

   NOAA